sensor_id;sensor_type;location;lat;lon;timestamp;temperature;humidity
46217;DHT22;47258;59.424;13.482;2023-07-20T17:28:16;16.40;99.90
46217;DHT22;47258;59.424;13.482;2023-07-20T17:30:44;16.60;99.90
46217;DHT22;47258;59.424;13.482;2023-07-20T17:33:11;16.60;99.90
46217;DHT22;47258;59.424;13.482;2023-07-20T17:35:39;16.50;99.90
46217;DHT22;47258;59.424;13.482;2023-07-20T17:38:07;16.50;99.90
46217;DHT22;47258;59.424;13.482;2023-07-20T17:40:34;16.40;99.90
46217;DHT22;47258;59.424;13.482;2023-07-20T17:43:01;16.40;99.90
46217;DHT22;47258;59.424;13.482;2023-07-20T17:45:28;16.40;99.90
46217;DHT22;47258;59.424;13.482;2023-07-20T17:47:55;16.30;99.90
46217;DHT22;47258;59.424;13.482;2023-07-20T17:50:22;16.30;99.90
46217;DHT22;47258;59.424;13.482;2023-07-20T17:52:51;16.30;99.90
46217;DHT22;47258;59.424;13.482;2023-07-20T17:55:19;16.30;99.90
46217;DHT22;47258;59.424;13.482;2023-07-20T17:57:46;16.10;99.90
46217;DHT22;47258;59.424;13.482;2023-07-20T18:00:14;15.90;99.90
46217;DHT22;47258;59.424;13.482;2023-07-20T18:02:42;15.90;99.90
46217;DHT22;47258;59.424;13.482;2023-07-20T18:05:10;15.70;99.90
46217;DHT22;47258;59.424;13.482;2023-07-20T18:07:37;15.70;99.90
46217;DHT22;47258;59.424;13.482;2023-07-20T18:10:08;15.50;99.90
46217;DHT22;47258;59.424;13.482;2023-07-20T18:12:35;15.40;99.90
46217;DHT22;47258;59.424;13.482;2023-07-20T18:15:02;15.20;99.90
46217;DHT22;47258;59.424;13.482;2023-07-20T18:17:30;15.00;99.90
46217;DHT22;47258;59.424;13.482;2023-07-20T18:19:57;14.90;99.90
46217;DHT22;47258;59.424;13.482;2023-07-20T18:22:24;14.80;99.90
46217;DHT22;47258;59.424;13.482;2023-07-20T18:24:51;14.70;99.90
46217;DHT22;47258;59.424;13.482;2023-07-20T18:27:20;14.80;99.90
46217;DHT22;47258;59.424;13.482;2023-07-20T18:29:48;14.80;99.90
46217;DHT22;47258;59.424;13.482;2023-07-20T18:32:15;14.80;99.90
46217;DHT22;47258;59.424;13.482;2023-07-20T18:34:42;14.70;99.90
46217;DHT22;47258;59.424;13.482;2023-07-20T18:37:09;14.70;99.90
46217;DHT22;47258;59.424;13.482;2023-07-20T18:39:37;14.70;99.90
46217;DHT22;47258;59.424;13.482;2023-07-20T18:42:05;14.70;99.90
46217;DHT22;47258;59.424;13.482;2023-07-20T18:44:33;14.80;99.90
46217;DHT22;47258;59.424;13.482;2023-07-20T18:47:00;14.80;99.90
46217;DHT22;47258;59.424;13.482;2023-07-20T18:49:27;14.80;99.90
46217;DHT22;47258;59.424;13.482;2023-07-20T18:51:55;14.70;99.90
46217;DHT22;47258;59.424;13.482;2023-07-20T18:54:22;14.70;99.90
46217;DHT22;47258;59.424;13.482;2023-07-20T18:56:49;14.80;99.90
46217;DHT22;47258;59.424;13.482;2023-07-20T18:59:17;14.70;99.90
46217;DHT22;47258;59.424;13.482;2023-07-20T19:01:45;14.60;99.90
46217;DHT22;47258;59.424;13.482;2023-07-20T19:04:13;14.60;99.90
46217;DHT22;47258;59.424;13.482;2023-07-20T19:06:40;14.60;99.90
46217;DHT22;47258;59.424;13.482;2023-07-20T19:09:07;14.50;99.90
46217;DHT22;47258;59.424;13.482;2023-07-20T19:11:34;14.50;99.90
46217;DHT22;47258;59.424;13.482;2023-07-20T19:14:01;14.40;99.90
46217;DHT22;47258;59.424;13.482;2023-07-20T19:16:28;14.40;99.90
46217;DHT22;47258;59.424;13.482;2023-07-20T19:18:57;14.40;99.90
46217;DHT22;47258;59.424;13.482;2023-07-20T19:21:24;14.40;99.90
46217;DHT22;47258;59.424;13.482;2023-07-20T19:23:51;14.30;99.90
46217;DHT22;47258;59.424;13.482;2023-07-20T19:26:18;14.30;99.90
46217;DHT22;47258;59.424;13.482;2023-07-20T19:28:45;14.30;99.90
46217;DHT22;47258;59.424;13.482;2023-07-20T19:31:12;14.30;99.90
46217;DHT22;47258;59.424;13.482;2023-07-20T19:33:39;14.30;99.90
46217;DHT22;47258;59.424;13.482;2023-07-20T19:36:08;14.30;99.90
46217;DHT22;47258;59.424;13.482;2023-07-20T19:38:35;14.30;99.90
46217;DHT22;47258;59.424;13.482;2023-07-20T19:41:02;14.30;99.90
46217;DHT22;47258;59.424;13.482;2023-07-20T19:43:31;14.20;99.90
46217;DHT22;47258;59.424;13.482;2023-07-20T19:45:58;14.20;99.90
46217;DHT22;47258;59.424;13.482;2023-07-20T19:48:25;14.10;99.90
46217;DHT22;47258;59.424;13.482;2023-07-20T19:50:52;14.00;99.90
46217;DHT22;47258;59.424;13.482;2023-07-20T19:53:21;14.00;99.90
46217;DHT22;47258;59.424;13.482;2023-07-20T19:55:49;15.00;99.90
46217;DHT22;47258;59.424;13.482;2023-07-20T19:58:16;14.60;99.90
46217;DHT22;47258;59.424;13.482;2023-07-20T20:03:11;13.90;99.90
46217;DHT22;47258;59.424;13.482;2023-07-20T20:05:38;13.90;99.90
46217;DHT22;47258;59.424;13.482;2023-07-20T20:08:06;13.90;99.90
46217;DHT22;47258;59.424;13.482;2023-07-20T20:10:36;13.80;99.90
46217;DHT22;47258;59.424;13.482;2023-07-20T20:13:03;13.80;99.90
46217;DHT22;47258;59.424;13.482;2023-07-20T20:15:31;13.80;99.90
46217;DHT22;47258;59.424;13.482;2023-07-20T20:17:59;13.70;99.90
46217;DHT22;47258;59.424;13.482;2023-07-20T20:20:30;13.70;99.90
46217;DHT22;47258;59.424;13.482;2023-07-20T20:22:58;13.70;99.90
46217;DHT22;47258;59.424;13.482;2023-07-20T20:25:25;13.70;99.90
46217;DHT22;47258;59.424;13.482;2023-07-20T20:27:54;13.60;99.90
46217;DHT22;47258;59.424;13.482;2023-07-20T20:30:22;13.60;99.90
46217;DHT22;47258;59.424;13.482;2023-07-20T20:32:49;13.50;99.90
46217;DHT22;47258;59.424;13.482;2023-07-20T20:35:16;13.50;99.90
46217;DHT22;47258;59.424;13.482;2023-07-20T20:37:44;13.40;99.90
46217;DHT22;47258;59.424;13.482;2023-07-20T20:40:12;13.40;99.90
46217;DHT22;47258;59.424;13.482;2023-07-20T20:42:39;13.40;99.90
46217;DHT22;47258;59.424;13.482;2023-07-20T20:45:09;13.40;99.90
46217;DHT22;47258;59.424;13.482;2023-07-20T20:47:37;13.40;99.90
46217;DHT22;47258;59.424;13.482;2023-07-20T20:50:05;13.30;99.90
46217;DHT22;47258;59.424;13.482;2023-07-20T20:52:34;13.20;99.90
46217;DHT22;47258;59.424;13.482;2023-07-20T20:55:01;13.20;99.90
46217;DHT22;47258;59.424;13.482;2023-07-20T20:57:29;13.20;99.90
46217;DHT22;47258;59.424;13.482;2023-07-20T20:59:56;13.20;99.90
46217;DHT22;47258;59.424;13.482;2023-07-20T21:02:25;13.10;99.90
46217;DHT22;47258;59.424;13.482;2023-07-20T21:04:52;13.10;99.90
46217;DHT22;47258;59.424;13.482;2023-07-20T21:07:19;13.00;99.90
46217;DHT22;47258;59.424;13.482;2023-07-20T21:09:46;12.90;99.90
46217;DHT22;47258;59.424;13.482;2023-07-20T21:12:13;12.90;99.90
46217;DHT22;47258;59.424;13.482;2023-07-20T21:14:40;12.80;99.90
46217;DHT22;47258;59.424;13.482;2023-07-20T21:17:07;12.80;99.90
46217;DHT22;47258;59.424;13.482;2023-07-20T21:19:35;12.80;99.90
46217;DHT22;47258;59.424;13.482;2023-07-20T21:22:03;12.80;99.90
46217;DHT22;47258;59.424;13.482;2023-07-20T21:24:30;12.80;99.90
46217;DHT22;47258;59.424;13.482;2023-07-20T21:26:58;12.70;99.90
46217;DHT22;47258;59.424;13.482;2023-07-20T21:29:25;12.70;99.90
46217;DHT22;47258;59.424;13.482;2023-07-20T21:31:52;12.60;99.90
46217;DHT22;47258;59.424;13.482;2023-07-20T21:34:19;12.50;99.90
46217;DHT22;47258;59.424;13.482;2023-07-20T21:36:48;12.50;99.90
46217;DHT22;47258;59.424;13.482;2023-07-20T21:39:15;12.50;99.90
46217;DHT22;47258;59.424;13.482;2023-07-20T21:41:42;12.40;99.90
46217;DHT22;47258;59.424;13.482;2023-07-20T21:44:09;12.40;99.90
46217;DHT22;47258;59.424;13.482;2023-07-20T21:46:36;12.40;99.90
46217;DHT22;47258;59.424;13.482;2023-07-20T21:49:03;12.30;99.90
46217;DHT22;47258;59.424;13.482;2023-07-20T21:51:30;12.20;99.90
46217;DHT22;47258;59.424;13.482;2023-07-20T21:53:58;12.20;99.90
46217;DHT22;47258;59.424;13.482;2023-07-20T21:56:25;12.20;99.90
46217;DHT22;47258;59.424;13.482;2023-07-20T21:58:52;12.10;99.90
46217;DHT22;47258;59.424;13.482;2023-07-20T22:01:19;12.00;99.90
46217;DHT22;47258;59.424;13.482;2023-07-20T22:03:46;12.00;99.90
46217;DHT22;47258;59.424;13.482;2023-07-20T22:06:14;11.90;99.90
46217;DHT22;47258;59.424;13.482;2023-07-20T22:08:41;11.90;99.90
46217;DHT22;47258;59.424;13.482;2023-07-20T22:11:09;11.80;99.90
46217;DHT22;47258;59.424;13.482;2023-07-20T22:13:36;11.90;99.90
46217;DHT22;47258;59.424;13.482;2023-07-20T22:16:04;11.80;99.90
46217;DHT22;47258;59.424;13.482;2023-07-20T22:18:31;11.80;99.90
46217;DHT22;47258;59.424;13.482;2023-07-20T22:20:59;11.80;99.90
46217;DHT22;47258;59.424;13.482;2023-07-20T22:23:29;11.70;99.90
46217;DHT22;47258;59.424;13.482;2023-07-20T22:25:57;11.60;99.90
46217;DHT22;47258;59.424;13.482;2023-07-20T22:28:26;11.60;99.90
46217;DHT22;47258;59.424;13.482;2023-07-20T22:30:56;11.60;99.90
46217;DHT22;47258;59.424;13.482;2023-07-20T22:33:23;11.50;99.90
46217;DHT22;47258;59.424;13.482;2023-07-20T22:35:52;11.50;99.90
46217;DHT22;47258;59.424;13.482;2023-07-20T22:38:19;11.50;99.90
46217;DHT22;47258;59.424;13.482;2023-07-20T22:40:46;11.50;99.90
46217;DHT22;47258;59.424;13.482;2023-07-20T22:43:13;11.50;99.90
46217;DHT22;47258;59.424;13.482;2023-07-20T22:45:41;11.50;99.90
46217;DHT22;47258;59.424;13.482;2023-07-20T22:48:08;11.50;99.90
46217;DHT22;47258;59.424;13.482;2023-07-20T22:50:37;11.60;99.90
46217;DHT22;47258;59.424;13.482;2023-07-20T22:53:04;11.60;99.90
46217;DHT22;47258;59.424;13.482;2023-07-20T22:55:31;11.60;99.90
46217;DHT22;47258;59.424;13.482;2023-07-20T22:57:58;11.60;99.90
46217;DHT22;47258;59.424;13.482;2023-07-20T23:00:25;11.60;99.90
46217;DHT22;47258;59.424;13.482;2023-07-20T23:02:58;11.70;99.90
46217;DHT22;47258;59.424;13.482;2023-07-20T23:05:25;11.70;99.90
46217;DHT22;47258;59.424;13.482;2023-07-20T23:07:52;11.70;99.90
46217;DHT22;47258;59.424;13.482;2023-07-20T23:10:19;11.60;99.90
46217;DHT22;47258;59.424;13.482;2023-07-20T23:12:46;11.60;99.90
46217;DHT22;47258;59.424;13.482;2023-07-20T23:15:14;11.50;99.90
46217;DHT22;47258;59.424;13.482;2023-07-20T23:17:41;11.50;99.90
46217;DHT22;47258;59.424;13.482;2023-07-20T23:20:11;11.50;99.90
46217;DHT22;47258;59.424;13.482;2023-07-20T23:22:44;11.40;99.90
46217;DHT22;47258;59.424;13.482;2023-07-20T23:25:17;11.40;99.90
46217;DHT22;47258;59.424;13.482;2023-07-20T23:27:44;11.40;99.90
46217;DHT22;47258;59.424;13.482;2023-07-20T23:30:12;11.40;99.90
46217;DHT22;47258;59.424;13.482;2023-07-20T23:32:39;11.50;99.90
46217;DHT22;47258;59.424;13.482;2023-07-20T23:35:09;11.50;99.90
46217;DHT22;47258;59.424;13.482;2023-07-20T23:37:37;11.50;99.90
46217;DHT22;47258;59.424;13.482;2023-07-20T23:40:06;11.60;99.90
46217;DHT22;47258;59.424;13.482;2023-07-20T23:42:37;11.60;99.90
46217;DHT22;47258;59.424;13.482;2023-07-20T23:45:05;11.60;99.90
46217;DHT22;47258;59.424;13.482;2023-07-20T23:47:32;11.60;99.90
46217;DHT22;47258;59.424;13.482;2023-07-20T23:49:59;11.60;99.90
46217;DHT22;47258;59.424;13.482;2023-07-20T23:52:28;11.60;99.90
46217;DHT22;47258;59.424;13.482;2023-07-20T23:55:00;11.60;99.90
46217;DHT22;47258;59.424;13.482;2023-07-20T23:57:28;11.60;99.90
46217;DHT22;47258;59.424;13.482;2023-07-20T23:59:55;11.60;99.90
